Time;durP1;ratioP1;P1;durP2;ratioP2;P2;SDS_P1;SDS_P2;PMS_P1;PMS_P2;Temp;Humidity;BMP_temperature;BMP_pressure;BME280_temperature;BME280_humidity;BME280_pressure;Samples;Min_cycle;Max_cycle;Signal;HPM_P1;HPM_P2
2023/06/23 00:00:29;;;;;;;1.67;1.20;;;;;;;26.07;45.22;102010.00;5041975;28;20362;-32
2023/06/23 00:02:56;;;;;;;2.05;1.25;;;;;;;26.06;45.06;102019.19;5038677;28;20107;-31
2023/06/23 00:05:23;;;;;;;1.40;1.20;;;;;;;26.07;45.05;102001.00;5037610;28;20364;-32
2023/06/23 00:07:50;;;;;;;2.17;1.30;;;;;;;26.05;45.20;101995.75;5033739;28;20076;-31
2023/06/23 00:10:16;;;;;;;0.98;0.90;;;;;;;26.03;45.18;101984.19;5040744;28;20049;-31
2023/06/23 00:12:43;;;;;;;1.30;1.13;;;;;;;26.04;44.98;101985.03;5035391;28;20089;-31
2023/06/23 00:15:14;;;;;;;0.93;0.85;;;;;;;26.03;45.09;101989.63;5037272;28;20053;-31
2023/06/23 00:17:46;;;;;;;1.10;0.90;;;;;;;26.01;45.18;101996.25;5036448;28;20515;-32
2023/06/23 00:20:13;;;;;;;1.33;0.88;;;;;;;26.01;45.18;101998.97;5042439;28;20404;-31
2023/06/23 00:22:41;;;;;;;1.80;1.20;;;;;;;26.00;45.18;102006.28;5032743;28;20049;-31
2023/06/23 00:25:11;;;;;;;1.30;1.00;;;;;;;26.00;45.00;102021.75;5040629;28;20088;-31
2023/06/23 00:27:42;;;;;;;1.75;1.25;;;;;;;25.98;45.46;102019.22;5033936;28;20495;-31
2023/06/23 00:30:10;;;;;;;2.90;1.10;;;;;;;25.97;45.13;102017.53;5048384;28;20055;-31
2023/06/23 00:32:38;;;;;;;1.77;1.15;;;;;;;25.96;44.94;102023.97;5049098;28;20049;-32
2023/06/23 00:35:06;;;;;;;1.30;1.20;;;;;;;25.95;45.31;102025.00;5080159;28;20060;-31
2023/06/23 00:37:37;;;;;;;1.17;0.98;;;;;;;25.95;45.08;102030.44;5044302;28;20394;-31
2023/06/23 00:40:07;;;;;;;1.30;1.10;;;;;;;25.94;45.13;102026.03;5044014;28;20057;-31
2023/06/23 00:42:48;;;;;;;0.80;0.80;;;;;;;25.92;45.39;102029.94;5047668;28;20045;-31
2023/06/23 00:45:15;;;;;;;1.35;1.02;;;;;;;25.92;45.29;102033.50;5047433;28;20104;-31
2023/06/23 00:47:44;;;;;;;1.95;1.10;;;;;;;25.92;45.23;102029.94;5047018;28;20048;-31
2023/06/23 00:50:17;;;;;;;1.25;1.13;;;;;;;25.91;45.38;102039.13;5048648;28;20103;-31
2023/06/23 00:52:51;;;;;;;2.40;1.10;;;;;;;25.90;44.87;102038.28;5032986;28;20045;-31
2023/06/23 00:55:28;;;;;;;1.05;0.95;;;;;;;25.90;45.20;102041.00;5041245;28;20663;-31
2023/06/23 00:57:57;;;;;;;1.77;1.23;;;;;;;25.90;45.03;102040.16;5037464;28;20164;-31
2023/06/23 01:00:25;;;;;;;1.50;1.15;;;;;;;25.88;45.32;102045.75;5039529;28;20056;-31
2023/06/23 01:02:54;;;;;;;1.08;0.90;;;;;;;25.88;45.65;102043.03;5037125;28;20058;-32
2023/06/23 01:05:25;;;;;;;1.35;1.00;;;;;;;25.87;45.13;102051.38;5039776;28;20056;-31
2023/06/23 01:08:19;;;;;;;1.10;1.00;;;;;;;25.85;45.35;102046.13;5036273;28;20385;-31
2023/06/23 01:11:11;;;;;;;1.50;1.10;;;;;;;25.87;45.35;102045.94;5038972;28;20160;-31
2023/06/23 01:14:08;;;;;;;1.25;1.13;;;;;;;25.85;45.57;102046.13;5036572;28;20049;-31
2023/06/23 01:16:58;;;;;;;1.30;1.20;;;;;;;25.85;45.25;102048.84;5040419;28;20057;-31
2023/06/23 01:19:53;;;;;;;1.55;1.20;;;;;;;25.84;45.39;102049.84;5038622;28;20111;-30
2023/06/23 01:22:36;;;;;;;1.40;1.20;;;;;;;25.83;45.52;102053.59;5037423;28;20387;-31
2023/06/23 01:25:29;;;;;;;1.27;1.08;;;;;;;25.82;45.11;102051.91;5039562;28;20100;-31
2023/06/23 01:28:17;;;;;;;1.50;1.27;;;;;;;25.83;45.24;102059.03;5036652;28;20049;-31
2023/06/23 01:30:47;;;;;;;2.22;1.13;;;;;;;25.82;45.28;102065.47;5038918;28;20049;-31
2023/06/23 01:33:18;;;;;;;2.15;1.10;;;;;;;25.81;45.28;102069.22;5036198;28;20172;-31
2023/06/23 01:35:52;;;;;;;1.63;1.20;;;;;;;25.81;45.32;102077.38;5034769;28;20327;-31
2023/06/23 01:38:27;;;;;;;1.40;1.30;;;;;;;25.80;45.44;102081.09;5037546;28;20404;-31
2023/06/23 01:40:55;;;;;;;1.70;1.17;;;;;;;25.79;45.46;102080.25;5038890;28;20049;-31
2023/06/23 01:43:29;;;;;;;1.45;1.20;;;;;;;25.80;45.26;102097.38;5038486;28;20135;-31
2023/06/23 01:46:06;;;;;;;1.20;1.10;;;;;;;25.78;45.29;102094.00;5037891;28;20376;-30
2023/06/23 01:48:36;;;;;;;1.83;1.27;;;;;;;25.78;45.51;102100.28;5033471;28;20147;-31
2023/06/23 01:51:06;;;;;;;1.70;1.20;;;;;;;25.77;45.42;102103.13;5037544;28;20123;-30
2023/06/23 01:53:33;;;;;;;1.50;1.40;;;;;;;25.76;45.44;102102.28;5038501;28;20053;-31
2023/06/23 01:56:03;;;;;;;1.92;1.35;;;;;;;25.76;45.56;102098.72;5043154;28;20053;-31
2023/06/23 01:58:33;;;;;;;2.50;1.60;;;;;;;25.76;45.33;102109.59;5043267;28;20480;-31
2023/06/23 02:01:00;;;;;;;1.60;1.27;;;;;;;25.76;45.28;102112.31;5042474;28;20059;-31
2023/06/23 02:03:29;;;;;;;1.92;1.40;;;;;;;25.74;45.19;102109.78;5043561;28;20209;-30
2023/06/23 02:05:57;;;;;;;2.13;1.60;;;;;;;25.75;45.38;102113.34;5042518;28;20437;-31
2023/06/23 02:08:26;;;;;;;1.75;1.48;;;;;;;25.74;45.09;102115.22;5043504;28;20447;-31
2023/06/23 02:10:55;;;;;;;1.60;1.40;;;;;;;25.73;45.31;102118.06;5042469;28;20061;-31
2023/06/23 02:13:26;;;;;;;1.67;1.30;;;;;;;25.72;45.40;102111.81;5045407;28;20392;-31
2023/06/23 02:15:55;;;;;;;1.50;1.38;;;;;;;25.72;45.33;102110.97;5043195;28;20693;-31
2023/06/23 02:18:23;;;;;;;1.40;1.30;;;;;;;25.71;45.15;102115.53;5044011;28;20400;-31
2023/06/23 02:20:51;;;;;;;1.80;1.40;;;;;;;25.72;45.34;102121.81;5047503;28;20132;-31
2023/06/23 02:23:20;;;;;;;1.38;1.17;;;;;;;25.71;45.12;102117.41;5043543;28;20334;-30
2023/06/23 02:25:48;;;;;;;1.65;1.30;;;;;;;25.70;45.34;102122.00;5041881;28;20094;-31
2023/06/23 02:28:16;;;;;;;2.55;1.58;;;;;;;25.70;45.17;102127.44;5041362;28;20122;-31
2023/06/23 02:30:44;;;;;;;1.40;1.10;;;;;;;25.69;45.26;102142.06;5041404;28;20456;-31
2023/06/23 02:33:11;;;;;;;2.80;1.38;;;;;;;25.68;45.42;102155.78;5037467;28;20041;-31
2023/06/23 02:35:37;;;;;;;2.10;1.30;;;;;;;25.68;45.38;102158.50;5032710;28;20520;-31
2023/06/23 02:38:09;;;;;;;1.52;1.17;;;;;;;25.66;45.66;102161.41;5040376;28;20405;-30
2023/06/23 02:40:39;;;;;;;1.33;1.23;;;;;;;25.66;45.26;102164.09;5041224;28;20060;-31
2023/06/23 02:43:17;;;;;;;1.30;1.20;;;;;;;25.66;45.39;102157.84;5043371;28;20045;-31
2023/06/23 02:45:49;;;;;;;1.65;1.35;;;;;;;25.65;45.31;102156.13;5041268;28;20708;-30
2023/06/23 02:48:19;;;;;;;1.70;1.30;;;;;;;25.64;45.34;102163.41;5041550;28;20049;-31
2023/06/23 02:50:48;;;;;;;1.63;1.35;;;;;;;25.63;45.27;102163.59;5039705;28;20095;-30
2023/06/23 02:53:21;;;;;;;1.25;1.02;;;;;;;25.61;45.24;102171.94;5040362;28;20053;-30
2023/06/23 02:55:50;;;;;;;3.33;1.88;;;;;;;25.62;45.30;102180.94;5036593;28;20095;-32
2023/06/23 02:58:18;;;;;;;1.77;1.30;;;;;;;25.61;45.18;102182.78;5038924;28;20372;-32
2023/06/23 03:00:46;;;;;;;2.10;1.50;;;;;;;25.60;45.46;102184.63;5037513;28;20421;-32
2023/06/23 03:03:15;;;;;;;1.65;1.10;;;;;;;25.59;45.25;102180.22;5039819;28;20053;-30
2023/06/23 03:05:43;;;;;;;1.33;1.10;;;;;;;25.58;45.55;102177.69;5040998;28;20052;-31
2023/06/23 03:08:10;;;;;;;1.92;1.40;;;;;;;25.58;45.22;102178.53;5040287;28;20057;-31
2023/06/23 03:10:37;;;;;;;1.58;1.48;;;;;;;25.57;45.43;102179.56;5037705;28;20061;-30
2023/06/23 03:13:04;;;;;;;1.92;1.58;;;;;;;25.57;45.58;102181.44;5039170;28;20045;-31
2023/06/23 03:15:30;;;;;;;1.20;1.10;;;;;;;25.56;45.34;102177.84;5036145;28;20434;-31
2023/06/23 03:18:05;;;;;;;1.60;1.20;;;;;;;25.55;45.46;102176.16;5038708;28;20057;-31
2023/06/23 03:20:45;;;;;;;1.50;1.38;;;;;;;25.54;45.48;102185.34;5043606;28;20080;-31
2023/06/23 03:23:13;;;;;;;1.52;1.20;;;;;;;25.54;45.39;102189.94;5043364;28;20049;-31
2023/06/23 03:25:43;;;;;;;1.98;1.33;;;;;;;25.54;45.12;102195.34;5041824;28;20059;-32
2023/06/23 03:28:15;;;;;;;1.40;1.27;;;;;;;25.52;45.38;102192.78;5042815;28;20393;-31
2023/06/23 03:30:57;;;;;;;1.20;1.00;;;;;;;25.52;45.21;102190.06;5042230;28;20136;-31
2023/06/23 03:33:33;;;;;;;1.73;1.40;;;;;;;25.51;45.55;102188.38;5044115;28;20053;-31
2023/06/23 03:36:21;;;;;;;1.40;1.27;;;;;;;25.50;45.63;102186.69;5041425;28;20045;-31
2023/06/23 03:39:04;;;;;;;2.38;1.45;;;;;;;25.50;45.26;102194.84;5043606;28;20054;-31
2023/06/23 03:41:32;;;;;;;1.92;1.50;;;;;;;25.51;45.29;102207.38;5044820;28;20066;-32
2023/06/23 03:44:07;;;;;;;1.77;1.42;;;;;;;25.50;45.45;102205.69;5044044;28;20053;-31
2023/06/23 03:46:57;;;;;;;1.70;1.38;;;;;;;25.49;45.26;102206.72;5043818;28;20473;-32
2023/06/23 03:49:32;;;;;;;1.67;1.27;;;;;;;25.49;45.33;102212.16;5044748;28;20061;-31
2023/06/23 03:52:02;;;;;;;2.05;1.30;;;;;;;25.49;45.31;102217.59;5044119;28;20049;-32
2023/06/23 03:54:31;;;;;;;1.95;1.30;;;;;;;25.50;45.37;102222.00;5047869;28;20126;-31
2023/06/23 03:57:01;;;;;;;1.85;1.27;;;;;;;25.48;45.37;102218.59;5043093;28;20052;-32
2023/06/23 03:59:28;;;;;;;1.10;1.00;;;;;;;25.49;45.52;102223.03;5043218;28;20124;-31
2023/06/23 04:01:56;;;;;;;1.40;1.20;;;;;;;25.49;45.61;102222.19;5045591;28;20077;-32
2023/06/23 04:04:25;;;;;;;1.50;1.30;;;;;;;25.48;45.15;102215.88;5042144;28;20566;-31
2023/06/23 04:06:54;;;;;;;1.35;1.25;;;;;;;25.49;45.57;102222.19;5042548;28;20041;-32
2023/06/23 04:09:24;;;;;;;1.60;1.30;;;;;;;25.48;45.17;102220.44;5042741;28;20492;-32
2023/06/23 04:11:52;;;;;;;1.25;1.15;;;;;;;25.48;45.50;102234.03;5041761;28;20077;-31
2023/06/23 04:14:22;;;;;;;1.30;1.20;;;;;;;25.48;45.41;102236.75;5041316;28;20141;-31
2023/06/23 04:16:52;;;;;;;1.40;1.30;;;;;;;25.47;45.47;102232.34;5037062;28;20663;-31
2023/06/23 04:19:24;;;;;;;2.15;1.23;;;;;;;25.47;45.35;102230.47;5039254;28;20057;-31
2023/06/23 04:21:52;;;;;;;1.73;1.25;;;;;;;25.48;45.35;102239.47;5040341;28;20362;-32
2023/06/23 04:24:21;;;;;;;1.80;1.30;;;;;;;25.48;45.42;102236.75;5041987;28;20107;-32
2023/06/23 04:26:52;;;;;;;1.70;1.20;;;;;;;25.48;45.45;102242.16;5043742;28;20049;-32
2023/06/23 04:29:21;;;;;;;1.63;1.08;;;;;;;25.47;45.41;102238.63;5040063;28;20045;-31
2023/06/23 04:31:51;;;;;;;1.42;1.23;;;;;;;25.47;45.49;102246.75;5039721;28;20049;-32
2023/06/23 04:34:17;;;;;;;2.08;1.27;;;;;;;25.48;45.46;102237.59;5039021;28;20089;-32
2023/06/23 04:37:08;;;;;;;1.38;1.20;;;;;;;25.48;45.28;102244.88;5039754;28;20140;-32
2023/06/23 04:39:57;;;;;;;1.25;1.15;;;;;;;25.46;45.27;102228.78;5037583;28;20092;-31
2023/06/23 04:42:29;;;;;;;1.17;1.05;;;;;;;25.48;45.54;102232.16;5038682;28;20053;-31
2023/06/23 04:45:00;;;;;;;1.85;1.15;;;;;;;25.49;45.12;102228.44;5039071;28;20053;-31
2023/06/23 04:47:32;;;;;;;1.00;0.93;;;;;;;25.48;45.29;102228.59;5052183;28;20053;-31
2023/06/23 04:50:04;;;;;;;1.08;0.88;;;;;;;25.50;45.23;102241.00;5041557;28;20110;-31
2023/06/23 04:52:34;;;;;;;1.80;1.23;;;;;;;25.50;45.42;102235.56;5047295;28;20037;-30
2023/06/23 04:55:03;;;;;;;1.05;0.98;;;;;;;25.51;45.25;102234.53;5039873;28;20437;-31
2023/06/23 04:57:34;;;;;;;1.35;1.23;;;;;;;25.52;45.20;102238.94;5038431;28;20053;-31
2023/06/23 05:00:04;;;;;;;1.58;1.08;;;;;;;25.54;45.04;102246.94;5042946;28;20052;-31
2023/06/23 05:02:32;;;;;;;1.10;1.00;;;;;;;25.54;45.29;102250.50;5041191;28;20045;-30
2023/06/23 05:05:00;;;;;;;1.20;1.00;;;;;;;25.55;45.09;102249.47;5038315;28;20060;-31
2023/06/23 05:07:29;;;;;;;1.70;1.10;;;;;;;25.56;44.94;102251.16;5034295;28;20118;-31
2023/06/23 05:09:58;;;;;;;1.27;1.17;;;;;;;25.57;45.03;102261.03;5040542;28;20131;-32
2023/06/23 05:12:27;;;;;;;1.20;1.10;;;;;;;25.59;45.14;102266.28;5037899;28;20048;-30
2023/06/23 05:14:57;;;;;;;1.35;1.10;;;;;;;25.61;45.09;102261.53;5036734;28;20053;-30
2023/06/23 05:17:27;;;;;;;1.02;0.90;;;;;;;25.62;45.15;102263.22;5038832;28;20049;-30
2023/06/23 05:19:56;;;;;;;0.90;0.90;;;;;;;25.63;45.29;102270.34;5037034;28;20057;-31
2023/06/23 05:22:25;;;;;;;1.33;0.90;;;;;;;25.65;45.15;102265.63;5038425;28;20049;-30
2023/06/23 05:25:00;;;;;;;1.20;1.10;;;;;;;25.66;45.51;102270.03;5040788;28;20055;-31
2023/06/23 05:27:29;;;;;;;1.40;1.30;;;;;;;25.68;45.05;102283.41;5037511;28;20134;-30
2023/06/23 05:29:57;;;;;;;1.23;1.08;;;;;;;25.70;45.16;102287.66;5037491;28;20045;-30
2023/06/23 05:32:27;;;;;;;1.10;1.00;;;;;;;25.70;45.16;102281.41;5040376;28;20520;-31
2023/06/23 05:34:58;;;;;;;1.17;1.00;;;;;;;25.72;45.01;102280.19;5040123;28;20053;-30
2023/06/23 05:37:26;;;;;;;3.28;1.02;;;;;;;25.74;44.95;102293.63;5039005;28;20053;-31
2023/06/23 05:39:56;;;;;;;1.30;1.17;;;;;;;25.76;44.63;102299.72;5038946;28;20356;-30
2023/06/23 05:42:22;;;;;;;1.50;1.20;;;;;;;25.78;44.79;102297.72;5041495;28;20045;-31
2023/06/23 05:44:49;;;;;;;1.15;1.05;;;;;;;25.79;44.91;102302.97;5038228;28;20430;-32
2023/06/23 05:47:20;;;;;;;1.17;1.00;;;;;;;25.81;44.87;102297.38;5039510;28;20061;-31
2023/06/23 05:49:51;;;;;;;1.33;1.23;;;;;;;25.82;44.84;102299.06;5038798;28;20045;-30
2023/06/23 05:52:21;;;;;;;1.10;0.88;;;;;;;25.84;44.97;102302.47;5036107;28;20119;-31
2023/06/23 05:54:49;;;;;;;1.20;1.05;;;;;;;25.86;44.74;102303.16;5037491;28;20048;-31
2023/06/23 05:57:29;;;;;;;1.38;1.10;;;;;;;25.87;44.57;102310.28;5037654;28;20376;-31
2023/06/23 06:00:14;;;;;;;1.17;1.08;;;;;;;25.88;44.72;102309.25;5034463;28;20085;-32
2023/06/23 06:02:45;;;;;;;1.38;1.15;;;;;;;25.90;44.63;102320.81;5041720;28;20071;-34
2023/06/23 06:05:17;;;;;;;1.52;1.42;;;;;;;25.90;44.70;102323.53;5036628;28;20076;-30
2023/06/23 06:07:46;;;;;;;1.10;1.00;;;;;;;25.92;44.62;102328.78;5038498;28;20053;-31
2023/06/23 06:10:15;;;;;;;1.17;1.08;;;;;;;25.91;44.63;102322.50;5043072;28;20057;-31
2023/06/23 06:12:44;;;;;;;1.25;1.05;;;;;;;25.92;44.60;102326.06;5044502;28;20041;-31
2023/06/23 06:15:16;;;;;;;1.43;1.10;;;;;;;25.92;44.82;102320.63;5044377;28;20472;-30
2023/06/23 06:17:43;;;;;;;2.55;1.38;;;;;;;25.93;44.59;102323.19;5044698;28;20467;-32
2023/06/23 06:20:13;;;;;;;1.25;1.13;;;;;;;25.92;44.67;102328.78;5047781;28;20463;-31
2023/06/23 06:22:44;;;;;;;1.40;1.13;;;;;;;25.92;44.72;102324.19;5051698;28;20069;-32
2023/06/23 06:25:12;;;;;;;1.65;1.20;;;;;;;25.94;44.56;102332.19;5054798;28;20056;-32
2023/06/23 06:27:42;;;;;;;1.30;1.20;;;;;;;25.95;44.53;102333.88;5053833;28;20114;-33
2023/06/23 06:30:10;;;;;;;1.58;1.20;;;;;;;25.95;44.58;102332.00;5053959;28;20052;-32
2023/06/23 06:32:39;;;;;;;2.50;1.20;;;;;;;25.95;44.72;102340.16;5045623;28;20460;-32
2023/06/23 06:35:09;;;;;;;1.25;1.15;;;;;;;25.95;44.49;102340.16;5052561;28;20111;-33
2023/06/23 06:37:41;;;;;;;1.27;1.15;;;;;;;25.97;44.53;102342.69;5049763;28;20048;-32
2023/06/23 06:40:11;;;;;;;1.58;1.20;;;;;;;25.97;44.62;102338.13;5050566;28;20080;-33
2023/06/23 06:42:38;;;;;;;1.65;1.30;;;;;;;25.98;44.55;102345.25;5046845;28;20047;-32
2023/06/23 06:45:05;;;;;;;1.52;1.02;;;;;;;25.99;44.61;102348.81;5049035;28;20113;-32
2023/06/23 06:47:40;;;;;;;1.65;1.30;;;;;;;26.00;44.64;102355.94;5049438;28;20056;-32
2023/06/23 06:50:09;;;;;;;1.65;1.40;;;;;;;26.01;44.45;102354.91;5039478;28;20053;-32
2023/06/23 06:52:38;;;;;;;1.45;1.00;;;;;;;26.01;44.59;102352.19;5044681;28;20099;-33
2023/06/23 06:55:19;;;;;;;1.58;1.30;;;;;;;26.00;44.70;102364.94;5043674;28;20056;-33
2023/06/23 06:57:47;;;;;;;2.13;1.63;;;;;;;26.02;44.60;102368.34;5043887;28;20091;-32
2023/06/23 07:00:19;;;;;;;1.70;1.48;;;;;;;26.01;44.64;102372.09;5044788;28;20107;-32
2023/06/23 07:02:46;;;;;;;1.77;1.20;;;;;;;26.02;44.54;102373.78;5041673;28;20045;-32
2023/06/23 07:05:13;;;;;;;1.48;1.10;;;;;;;26.02;44.52;102370.22;5072832;28;20131;-33
2023/06/23 07:07:40;;;;;;;1.58;1.25;;;;;;;26.02;43.95;102362.91;5043178;28;20146;-32
2023/06/23 07:10:07;;;;;;;1.30;1.00;;;;;;;26.02;44.74;102365.63;5042867;28;20488;-32
2023/06/23 07:12:34;;;;;;;1.52;1.40;;;;;;;26.03;44.43;102371.91;5043304;28;20045;-32
2023/06/23 07:15:02;;;;;;;1.67;1.10;;;;;;;26.02;44.50;102368.34;5042321;28;20377;-32
2023/06/23 07:17:29;;;;;;;1.48;1.38;;;;;;;26.03;44.31;102374.63;5047367;28;20048;-32
2023/06/23 07:19:55;;;;;;;2.10;1.40;;;;;;;26.04;44.34;102373.59;5041701;28;20063;-32
2023/06/23 07:22:22;;;;;;;1.75;1.50;;;;;;;26.04;44.11;102368.16;5040777;28;20529;-33
2023/06/23 07:24:49;;;;;;;1.70;1.30;;;;;;;26.04;44.52;102377.16;5043184;28;20091;-32
2023/06/23 07:27:16;;;;;;;1.35;1.10;;;;;;;26.04;44.44;102373.59;5041779;28;20061;-33
2023/06/23 07:29:43;;;;;;;1.63;1.25;;;;;;;26.04;44.38;102382.59;5043371;28;20049;-32
2023/06/23 07:32:10;;;;;;;1.38;1.25;;;;;;;26.05;44.38;102389.75;5034828;28;20053;-32
2023/06/23 07:34:37;;;;;;;2.65;1.40;;;;;;;26.06;44.44;102385.16;5034665;28;20045;-33
2023/06/23 07:37:03;;;;;;;2.00;1.65;;;;;;;26.06;44.40;102386.00;5041665;28;20053;-33
2023/06/23 07:39:30;;;;;;;1.25;1.08;;;;;;;26.06;44.29;102382.44;5041874;28;20096;-32
2023/06/23 07:41:57;;;;;;;1.55;1.42;;;;;;;26.06;44.24;102386.00;5045737;28;20103;-32
2023/06/23 07:44:23;;;;;;;1.23;1.13;;;;;;;26.06;44.50;102377.84;5044095;28;20057;-33
2023/06/23 07:46:50;;;;;;;1.30;1.17;;;;;;;26.08;44.41;102377.69;5044190;28;20114;-33
2023/06/23 07:49:17;;;;;;;1.30;1.10;;;;;;;26.07;44.43;102386.84;5041925;28;20139;-32
2023/06/23 07:51:43;;;;;;;1.40;1.30;;;;;;;26.08;44.53;102383.97;5044636;28;20095;-33
2023/06/23 07:54:10;;;;;;;2.15;1.58;;;;;;;26.08;44.55;102383.97;5045263;28;20045;-32
2023/06/23 07:56:37;;;;;;;1.85;1.50;;;;;;;26.09;44.23;102380.25;5043639;28;20053;-32
2023/06/23 07:59:03;;;;;;;2.00;1.35;;;;;;;26.09;44.32;102376.66;5045021;28;20182;-32
2023/06/23 08:01:30;;;;;;;1.45;1.20;;;;;;;26.11;44.51;102382.78;5047700;28;20052;-33
2023/06/23 08:03:56;;;;;;;1.90;1.30;;;;;;;26.11;44.38;102382.78;5038460;28;20551;-32
2023/06/23 08:06:24;;;;;;;1.17;1.00;;;;;;;26.12;44.31;102378.19;5033597;28;20260;-33
2023/06/23 08:08:51;;;;;;;2.15;1.40;;;;;;;26.12;44.37;102378.19;5041814;28;20676;-32
2023/06/23 08:11:18;;;;;;;1.25;1.10;;;;;;;26.12;44.04;102384.47;5042542;28;20136;-32
2023/06/23 08:13:44;;;;;;;1.50;1.20;;;;;;;26.14;44.22;102387.03;5044252;28;20077;-33
2023/06/23 08:16:11;;;;;;;1.13;1.00;;;;;;;26.15;44.20;102388.72;5044485;28;20103;-33
2023/06/23 08:18:38;;;;;;;1.70;1.30;;;;;;;26.16;44.35;102384.97;5041444;28;20053;-33
2023/06/23 08:21:04;;;;;;;2.22;1.35;;;;;;;26.16;43.90;102395.84;5042035;28;20102;-32
2023/06/23 08:23:31;;;;;;;2.67;1.60;;;;;;;26.16;44.04;102390.41;5043063;28;20161;-33
2023/06/23 08:26:03;;;;;;;1.40;1.30;;;;;;;26.17;44.05;102394.81;5043270;28;20054;-32
2023/06/23 08:28:30;;;;;;;1.60;1.42;;;;;;;26.18;44.25;102405.53;5042579;28;20053;-33
2023/06/23 08:30:57;;;;;;;2.20;1.20;;;;;;;26.19;44.04;102400.97;5041781;28;20396;-33
2023/06/23 08:33:24;;;;;;;1.60;1.50;;;;;;;26.20;44.25;102402.66;5040152;28;20128;-33
2023/06/23 08:35:50;;;;;;;1.45;1.20;;;;;;;26.20;44.16;102405.38;5038857;28;20054;-32
2023/06/23 08:38:18;;;;;;;1.70;1.25;;;;;;;26.21;44.06;102399.78;5039199;28;20754;-32
2023/06/23 08:40:47;;;;;;;1.58;1.30;;;;;;;26.22;44.20;102406.06;5037408;28;20052;-32
2023/06/23 08:43:15;;;;;;;1.73;1.60;;;;;;;26.22;44.16;102411.50;5043083;28;20049;-32
2023/06/23 08:45:49;;;;;;;2.00;1.40;;;;;;;26.21;44.06;102418.81;5041689;28;20497;-32
2023/06/23 08:48:17;;;;;;;1.85;1.35;;;;;;;26.24;44.19;102414.88;5039207;28;20502;-32
2023/06/23 08:50:44;;;;;;;2.47;1.13;;;;;;;26.24;44.12;102415.72;5032656;28;20054;-32
2023/06/23 08:53:11;;;;;;;1.42;1.33;;;;;;;26.25;44.35;102416.56;5038333;28;20087;-32
2023/06/23 08:55:37;;;;;;;1.42;1.27;;;;;;;26.26;44.03;102418.28;5038049;28;20080;-32
2023/06/23 08:58:04;;;;;;;1.70;1.25;;;;;;;26.27;43.99;102425.41;5036680;28;20084;-32
2023/06/23 09:00:30;;;;;;;1.40;1.30;;;;;;;26.28;44.07;102430.66;5033603;28;20103;-32
2023/06/23 09:02:58;;;;;;;1.67;1.38;;;;;;;26.29;44.21;102434.25;5032764;28;20053;-32
2023/06/23 09:05:24;;;;;;;2.22;1.58;;;;;;;26.30;44.27;102435.97;5038363;28;20132;-32
2023/06/23 09:07:51;;;;;;;1.52;1.38;;;;;;;26.30;44.40;102439.53;5038333;28;20067;-32
2023/06/23 09:10:18;;;;;;;1.95;1.38;;;;;;;26.32;44.31;102442.91;5038614;28;20060;-32
2023/06/23 09:13:07;;;;;;;1.45;1.35;;;;;;;26.33;44.43;102444.63;5036225;28;20444;-32
2023/06/23 09:15:34;;;;;;;1.77;1.35;;;;;;;26.36;44.44;102443.41;5032343;28;20056;-32
2023/06/23 09:18:21;;;;;;;1.80;1.48;;;;;;;26.39;44.16;102434.94;5037992;28;20049;-33
2023/06/23 09:20:49;;;;;;;1.88;1.50;;;;;;;26.40;44.43;102455.66;5036886;28;20130;-33
2023/06/23 09:23:21;;;;;;;1.65;1.55;;;;;;;26.42;44.52;102450.91;5039757;28;20057;-33
2023/06/23 09:25:50;;;;;;;1.95;1.40;;;;;;;26.45;44.21;102445.13;5041029;28;20084;-32
2023/06/23 09:28:27;;;;;;;2.20;1.77;;;;;;;26.47;44.54;102459.44;5038806;28;20098;-33
2023/06/23 09:30:57;;;;;;;1.88;1.65;;;;;;;26.52;44.41;102464.34;5040594;28;20053;-32
2023/06/23 09:33:25;;;;;;;2.22;1.30;;;;;;;26.54;44.61;102455.00;5039278;28;20048;-32
2023/06/23 09:35:53;;;;;;;1.70;1.50;;;;;;;26.56;44.96;102455.66;5040092;28;20049;-32
2023/06/23 09:38:24;;;;;;;1.52;1.40;;;;;;;26.60;44.61;102453.47;5040358;28;20053;-32
2023/06/23 09:41:06;;;;;;;2.22;1.58;;;;;;;26.63;44.22;102458.56;5039240;28;20194;-33
2023/06/23 09:43:52;;;;;;;1.98;1.77;;;;;;;26.67;44.61;102462.63;5042014;28;20049;-32
2023/06/23 09:46:22;;;;;;;1.70;1.60;;;;;;;26.70;44.37;102451.41;5040416;28;20052;-32
2023/06/23 09:48:50;;;;;;;1.30;1.20;;;;;;;26.74;44.51;102457.38;5042074;28;20062;-32
2023/06/23 09:51:21;;;;;;;2.00;1.55;;;;;;;26.76;44.22;102452.59;5040123;28;20126;-33
2023/06/23 09:53:48;;;;;;;1.98;1.55;;;;;;;26.78;44.61;102445.97;5041465;28;20091;-32
2023/06/23 09:56:19;;;;;;;1.77;1.52;;;;;;;26.83;44.37;102461.75;5038357;28;20049;-33
2023/06/23 09:58:47;;;;;;;1.67;1.38;;;;;;;26.85;44.06;102451.53;5038883;28;20127;-33
2023/06/23 10:01:17;;;;;;;1.83;1.40;;;;;;;26.88;44.38;102445.75;5037953;28;20106;-32
2023/06/23 10:03:46;;;;;;;1.85;1.42;;;;;;;26.91;44.28;102452.75;5039145;28;20059;-33
2023/06/23 10:06:25;;;;;;;2.08;1.60;;;;;;;26.94;44.46;102466.00;5036880;28;20099;-33
2023/06/23 10:08:53;;;;;;;1.88;1.15;;;;;;;26.96;44.20;102464.78;5041302;28;20046;-33
2023/06/23 10:11:29;;;;;;;1.52;1.42;;;;;;;26.98;44.19;102464.63;5034634;28;20057;-32
2023/06/23 10:13:57;;;;;;;1.33;1.10;;;;;;;27.02;44.07;102475.00;5040724;28;20471;-33
2023/06/23 10:16:24;;;;;;;1.75;1.60;;;;;;;27.03;43.87;102471.25;5036019;28;20510;-33
2023/06/23 10:18:52;;;;;;;1.33;1.20;;;;;;;27.06;43.87;102476.34;5035784;28;20084;-32
2023/06/23 10:21:19;;;;;;;1.40;1.30;;;;;;;27.07;44.13;102467.16;5033069;28;20049;-33
2023/06/23 10:23:48;;;;;;;1.52;1.27;;;;;;;27.11;43.93;102466.84;5036435;28;20131;-33
2023/06/23 10:26:17;;;;;;;1.60;1.20;;;;;;;27.14;44.24;102469.22;5038856;28;20110;-32
2023/06/23 10:28:49;;;;;;;1.38;1.20;;;;;;;27.15;43.65;102470.91;5043920;28;20048;-33
2023/06/23 10:31:19;;;;;;;1.75;1.35;;;;;;;27.17;44.20;102464.25;5039890;28;20049;-33
2023/06/23 10:33:47;;;;;;;1.40;1.25;;;;;;;27.20;44.08;102476.66;4960506;28;20052;-33
2023/06/23 10:36:20;;;;;;;1.88;1.58;;;;;;;27.22;43.90;102464.59;4964817;28;20158;-33
2023/06/23 10:38:50;;;;;;;1.80;1.40;;;;;;;27.24;43.64;102467.13;5041896;28;20053;-32
2023/06/23 10:41:19;;;;;;;1.83;1.27;;;;;;;27.25;43.80;102468.81;5044522;28;20069;-32
2023/06/23 10:43:54;;;;;;;1.73;1.38;;;;;;;27.26;43.59;102468.66;5045260;28;20080;-33
2023/06/23 10:46:22;;;;;;;3.72;1.60;;;;;;;27.29;43.84;102468.28;5045764;28;20048;-32
2023/06/23 10:48:50;;;;;;;1.85;1.50;;;;;;;27.31;43.47;102468.97;5040170;28;20060;-33
2023/06/23 10:51:16;;;;;;;1.33;1.20;;;;;;;27.34;43.95;102475.06;5040069;28;20057;-33
2023/06/23 10:54:05;;;;;;;1.67;1.15;;;;;;;27.34;43.71;102484.13;5034492;28;20085;-32
2023/06/23 10:56:35;;;;;;;1.55;1.38;;;;;;;27.37;43.90;102483.75;5035866;28;20385;-32
2023/06/23 10:59:27;;;;;;;1.65;1.27;;;;;;;27.38;43.49;102484.59;5034663;28;20045;-33
2023/06/23 11:01:59;;;;;;;2.10;1.50;;;;;;;27.40;43.67;102477.94;5040880;28;20077;-32
2023/06/23 11:04:30;;;;;;;1.93;1.40;;;;;;;27.42;43.52;102484.09;5039741;28;20263;-32
2023/06/23 11:07:05;;;;;;;2.03;1.75;;;;;;;27.44;43.63;102484.75;5036352;28;20140;-33
2023/06/23 11:10:01;;;;;;;1.52;1.38;;;;;;;27.46;43.62;102498.19;5039248;28;20135;-32
2023/06/23 11:12:33;;;;;;;2.25;1.60;;;;;;;27.48;43.36;102496.13;5040309;28;20085;-33
2023/06/23 11:15:20;;;;;;;1.42;1.30;;;;;;;27.48;43.12;102490.69;5039980;28;20084;-33
2023/06/23 11:18:01;;;;;;;2.03;1.40;;;;;;;27.51;43.51;102483.00;5039676;28;20053;-33
2023/06/23 11:20:30;;;;;;;1.55;1.42;;;;;;;27.54;43.38;102490.00;5040168;28;20095;-33
2023/06/23 11:23:07;;;;;;;1.92;1.52;;;;;;;27.54;43.44;102492.72;5040049;28;20085;-33
2023/06/23 11:25:38;;;;;;;1.73;1.50;;;;;;;27.55;43.64;102484.34;5041939;28;20445;-33
2023/06/23 11:28:24;;;;;;;1.95;1.70;;;;;;;27.56;42.98;102482.47;5037924;28;20343;-33
2023/06/23 11:31:00;;;;;;;1.48;1.30;;;;;;;27.59;43.55;102486.72;5058319;28;20059;-32
2023/06/23 11:33:35;;;;;;;2.13;1.50;;;;;;;27.60;43.21;102489.25;5037496;28;20057;-33
2023/06/23 11:36:10;;;;;;;1.92;1.13;;;;;;;27.62;43.62;102500.84;5041507;28;20058;-32
2023/06/23 11:38:39;;;;;;;1.55;1.35;;;;;;;27.63;42.92;102491.63;5037209;28;20277;-32
2023/06/23 11:41:07;;;;;;;1.17;1.08;;;;;;;27.66;43.17;102495.88;5035687;28;20049;-32